»·PEaware :: BAW457 KBFI-KSFO

BAW457 :: KBFI-KSFO

FLIGHT INFORMATION

Flight Status: Arrived
Operator:
British Airways
More flights by this operator :: More flights under this callsign
Pilot: Alan S. (10569)
Aircraft: AIRBUS A330-200
(A332)
More flights by this aircraft type
Origin: KBFI Boeing Field/King Co Intl
United States
Destination: KSFO San Francisco Intl
United States
More flights between these airports :: More routes between these airports
Route: SEA J70 ELMAA OED/N0443F390 J501 PYE GOLDN7
File this flight plan on PilotEdge
Remarks: SPEEDBIRD
Altitude:
(Current/Filed)
38,000ft
Speed:
(Current/Filed)
440kts
Departed: 30-Mar-17 07:13 PM
Arrived: 30-Mar-17 08:47 PM
Distance/Time
Traveled:
595nm/1:34
Distance/Time
To Go:
Arrived

Flight Plot

Page will automatically refresh every two minutes.

Flight plan parsing failed; only flown route is shown


Map Options




Map Legend


Flown Route
Filed Route
Departure Airport
Arrival Airport
Navaid (VOR, NDB)
Fix

Horizontal Profiles

Position Reports

Time Latitude Longitude Heading Altitude Ground
Speed
30-Mar-17 18:48 47.538342 -122.312449 242 22ft 0kts
30-Mar-17 18:49 47.538342 -122.312449 242 22ft 0kts
30-Mar-17 18:50 47.538342 -122.312449 242 22ft 0kts
30-Mar-17 18:51 47.538342 -122.312449 242 22ft 0kts
30-Mar-17 18:52 47.538342 -122.312449 242 22ft 0kts
30-Mar-17 18:53 47.538342 -122.312449 242 22ft 0kts
30-Mar-17 18:54 47.538342 -122.312449 242 22ft 0kts
30-Mar-17 18:55 47.538342 -122.312449 242 22ft 0kts
30-Mar-17 18:56 47.538342 -122.312449 242 22ft 0kts
30-Mar-17 18:57 47.538342 -122.312449 242 22ft 0kts
30-Mar-17 18:58 47.538342 -122.312449 242 22ft 0kts
30-Mar-17 18:59 47.538342 -122.312449 242 22ft 0kts
30-Mar-17 19:00 47.538342 -122.312449 242 22ft 0kts
30-Mar-17 19:01 47.538342 -122.312449 242 22ft 0kts
30-Mar-17 19:02 47.538342 -122.312449 242 22ft 0kts
30-Mar-17 19:03 47.538342 -122.312449 242 22ft 0kts
30-Mar-17 19:04 47.538342 -122.312449 242 22ft 0kts
30-Mar-17 19:05 47.538342 -122.312449 242 22ft 0kts
30-Mar-17 19:06 47.538342 -122.312449 242 22ft 0kts
30-Mar-17 19:07 47.538342 -122.312449 242 22ft 0kts
30-Mar-17 19:08 47.538187 -122.312932 259 22ft 6kts
30-Mar-17 19:09 47.539246 -122.311736 151 22ft 13kts
30-Mar-17 19:10 47.534830 -122.308002 149 22ft 23kts
30-Mar-17 19:11 47.527950 -122.302205 150 22ft 29kts
30-Mar-17 19:12 47.521396 -122.296777 150 22ft 24kts
30-Mar-17 19:13 47.517026 -122.293102 148 23ft 10kts
30-Mar-17 19:14 47.524334 -122.297660 330 22ft 108kts
30-Mar-17 19:15 47.560470 -122.329272 329 1790ft 155kts
30-Mar-17 19:16 47.599863 -122.368269 308 2929ft 200kts
30-Mar-17 19:17 47.569513 -122.437919 184 4607ft 277kts
30-Mar-17 19:18 47.507755 -122.374338 137 7832ft 288kts
30-Mar-17 19:19 47.438561 -122.335005 209 10232ft 284kts
30-Mar-17 19:20 47.400518 -122.442633 251 11466ft 336kts
30-Mar-17 19:21 47.366539 -122.577601 251 13907ft 360kts
30-Mar-17 19:22 47.331804 -122.712213 250 16462ft 371kts
30-Mar-17 19:23 47.294400 -122.855954 250 18912ft 383kts
30-Mar-17 19:24 47.255647 -123.003864 250 21123ft 396kts
30-Mar-17 19:25 47.215480 -123.156178 250 23110ft 408kts
30-Mar-17 19:26 47.173713 -123.312895 247 24998ft 418kts
30-Mar-17 19:27 47.073550 -123.394321 187 26550ft 461kts
30-Mar-17 19:28 46.943747 -123.386064 181 27916ft 478kts
30-Mar-17 19:29 46.822204 -123.372599 181 29046ft 490kts
30-Mar-17 19:30 46.686905 -123.357426 182 30171ft 500kts
30-Mar-17 19:31 46.549374 -123.342052 182 31722ft 498kts
30-Mar-17 19:32 46.411846 -123.326774 183 33095ft 497kts
30-Mar-17 19:33 46.274558 -123.311787 180 33874ft 507kts
30-Mar-17 19:34 46.130930 -123.295839 179 34000ft 534kts
30-Mar-17 19:35 45.980438 -123.279356 179 34561ft 548kts
30-Mar-17 19:36 45.834664 -123.263494 179 35839ft 542kts
30-Mar-17 19:37 45.686996 -123.247513 179 36776ft 539kts
30-Mar-17 19:38 45.538544 -123.231531 179 37597ft 537kts
30-Mar-17 19:39 45.391171 -123.215745 179 38317ft 531kts
30-Mar-17 19:40 45.244646 -123.200151 179 38349ft 538kts
30-Mar-17 19:41 45.098506 -123.184657 179 38359ft 535kts
30-Mar-17 19:42 44.950247 -123.169020 179 38316ft 537kts
30-Mar-17 19:43 44.809009 -123.154205 179 38315ft 538kts
30-Mar-17 19:44 44.661160 -123.138771 179 38330ft 538kts
30-Mar-17 19:45 44.512931 -123.123381 179 38344ft 539kts
30-Mar-17 19:46 44.363806 -123.107956 179 38367ft 537kts
30-Mar-17 19:47 44.215502 -123.092727 179 38388ft 540kts
30-Mar-17 19:48 44.066521 -123.077492 179 38344ft 540kts
30-Mar-17 19:49 43.917307 -123.062307 179 38348ft 541kts
30-Mar-17 19:50 43.775626 -123.047963 179 38350ft 542kts
30-Mar-17 19:51 43.626402 -123.032925 179 38347ft 542kts
30-Mar-17 19:52 43.476771 -123.017909 179 38306ft 540kts
30-Mar-17 19:53 43.327412 -123.003020 179 38318ft 544kts
30-Mar-17 19:54 43.177690 -122.987030 179 38335ft 544kts
30-Mar-17 19:55 43.027548 -122.970953 179 38320ft 544kts
30-Mar-17 19:56 42.880859 -122.955325 178 38309ft 545kts
30-Mar-17 19:57 42.733799 -122.939728 178 38305ft 545kts
30-Mar-17 19:58 42.583037 -122.923827 178 38274ft 549kts
30-Mar-17 19:59 42.432932 -122.912366 184 38306ft 545kts
30-Mar-17 20:00 42.282367 -122.910807 183 38302ft 544kts
30-Mar-17 20:01 42.131560 -122.909187 183 38282ft 545kts
30-Mar-17 20:02 41.980679 -122.907573 183 38289ft 546kts
30-Mar-17 20:03 41.835258 -122.906021 183 38226ft 547kts
30-Mar-17 20:04 41.685913 -122.904430 183 38240ft 547kts
30-Mar-17 20:05 41.534575 -122.902841 183 38236ft 548kts
30-Mar-17 20:06 41.383612 -122.901248 183 38221ft 548kts
30-Mar-17 20:07 41.231505 -122.899662 183 38149ft 550kts
30-Mar-17 20:08 41.079932 -122.898082 183 38187ft 550kts
30-Mar-17 20:09 40.927445 -122.896504 183 38199ft 550kts
30-Mar-17 20:10 40.785579 -122.895036 183 38175ft 552kts
30-Mar-17 20:11 40.633523 -122.893471 183 38186ft 552kts
30-Mar-17 20:12 40.480941 -122.891912 183 38123ft 552kts
30-Mar-17 20:13 40.328533 -122.890356 183 38153ft 552kts
30-Mar-17 20:14 40.175984 -122.888821 183 38152ft 555kts
30-Mar-17 20:15 40.022733 -122.887278 183 38131ft 555kts
30-Mar-17 20:16 39.873884 -122.885778 183 38118ft 554kts
30-Mar-17 20:17 39.726529 -122.884300 183 38144ft 556kts
30-Mar-17 20:18 39.572975 -122.882697 183 38142ft 556kts
30-Mar-17 20:19 39.416021 -122.881076 182 35836ft 582kts
30-Mar-17 20:20 39.253612 -122.879367 182 33044ft 588kts
30-Mar-17 20:21 39.092291 -122.877699 183 31046ft 577kts
30-Mar-17 20:22 38.932327 -122.876136 183 28772ft 583kts
30-Mar-17 20:23 38.785085 -122.874644 184 25895ft 542kts
30-Mar-17 20:24 38.639434 -122.873246 185 24155ft 515kts
30-Mar-17 20:25 38.492562 -122.871837 184 22708ft 528kts
30-Mar-17 20:26 38.351766 -122.870393 185 19742ft 490kts
30-Mar-17 20:27 38.222679 -122.869194 185 17287ft 447kts
30-Mar-17 20:28 38.103380 -122.866198 172 14861ft 427kts
30-Mar-17 20:29 38.005790 -122.786625 137 12491ft 413kts
30-Mar-17 20:30 37.921922 -122.697375 135 12005ft 388kts
30-Mar-17 20:31 37.842177 -122.612061 135 12001ft 388kts
30-Mar-17 20:32 37.760692 -122.524742 135 10894ft 379kts
30-Mar-17 20:33 37.684060 -122.442879 134 9640ft 339kts
30-Mar-17 20:34 37.614631 -122.368964 134 8435ft 320kts
30-Mar-17 20:35 37.549928 -122.299879 135 7974ft 315kts
30-Mar-17 20:36 37.485736 -122.226826 133 6959ft 313kts
30-Mar-17 20:37 37.423949 -122.155225 134 5743ft 299kts
30-Mar-17 20:38 37.371287 -122.076293 132 4572ft 280kts
30-Mar-17 20:39 37.347726 -122.000604 58 4000ft 255kts
30-Mar-17 20:40 37.414047 -122.005056 343 3961ft 255kts
30-Mar-17 20:41 37.474345 -122.036714 330 3982ft 228kts
30-Mar-17 20:42 37.505369 -122.100808 298 3977ft 214kts
30-Mar-17 20:43 37.531257 -122.161925 305 3548ft 187kts
30-Mar-17 20:44 37.553063 -122.213469 302 2567ft 155kts
30-Mar-17 20:45 37.574094 -122.263253 298 1696ft 156kts
30-Mar-17 20:46 37.593542 -122.309378 297 886ft 148kts
30-Mar-17 20:47 37.612174 -122.353870 295 129ft 138kts
30-Mar-17 20:48 37.620442 -122.373804 297 25ft 21kts
30-Mar-17 20:49 37.622245 -122.380826 277 24ft 0kts
30-Mar-17 20:50 37.619990 -122.382728 121 24ft 14kts
30-Mar-17 20:51 37.618376 -122.381997 146 25ft 0kts
30-Mar-17 20:52 37.618376 -122.381997 146 25ft 0kts
30-Mar-17 20:53 37.618376 -122.381997 146 25ft 0kts
30-Mar-17 20:54 37.618376 -122.381997 146 25ft 0kts
30-Mar-17 20:55 37.618376 -122.381997 146 25ft 0kts
30-Mar-17 20:56 37.618376 -122.381997 146 25ft 0kts

Navigation Log

Ident Type
Flight plan parsing failed, navigation log unavailable